sensor_id;sensor_type;location;lat;lon;timestamp;P1;durP1;ratioP1;P2;durP2;ratioP2
1460;SDS011;724;49.910;12.530;2022-09-09T00:02:08;0.20;;;0.10;;
1460;SDS011;724;49.910;12.530;2022-09-09T00:04:44;0.00;;;0.00;;
1460;SDS011;724;49.910;12.530;2022-09-09T00:07:18;0.20;;;0.10;;
1460;SDS011;724;49.910;12.530;2022-09-09T00:09:53;0.00;;;0.00;;
1460;SDS011;724;49.910;12.530;2022-09-09T00:12:27;0.20;;;0.10;;
1460;SDS011;724;49.910;12.530;2022-09-09T00:14:59;0.20;;;0.10;;
1460;SDS011;724;49.910;12.530;2022-09-09T00:17:32;0.00;;;0.00;;
1460;SDS011;724;49.910;12.530;2022-09-09T00:20:05;0.00;;;0.00;;
1460;SDS011;724;49.910;12.530;2022-09-09T00:22:39;0.00;;;0.00;;
1460;SDS011;724;49.910;12.530;2022-09-09T00:25:14;0.00;;;0.00;;
1460;SDS011;724;49.910;12.530;2022-09-09T00:27:46;0.00;;;0.00;;
1460;SDS011;724;49.910;12.530;2022-09-09T00:30:16;0.00;;;0.00;;
1460;SDS011;724;49.910;12.530;2022-09-09T00:32:47;0.00;;;0.00;;
1460;SDS011;724;49.910;12.530;2022-09-09T00:35:16;0.00;;;0.00;;
1460;SDS011;724;49.910;12.530;2022-09-09T00:37:47;0.00;;;0.00;;
1460;SDS011;724;49.910;12.530;2022-09-09T00:40:23;0.00;;;0.00;;
1460;SDS011;724;49.910;12.530;2022-09-09T00:43:00;0.00;;;0.00;;
1460;SDS011;724;49.910;12.530;2022-09-09T00:45:47;0.00;;;0.00;;
1460;SDS011;724;49.910;12.530;2022-09-09T00:48:27;0.00;;;0.00;;
1460;SDS011;724;49.910;12.530;2022-09-09T00:51:03;0.00;;;0.00;;
1460;SDS011;724;49.910;12.530;2022-09-09T00:53:38;0.00;;;0.00;;
1460;SDS011;724;49.910;12.530;2022-09-09T00:56:12;0.00;;;0.00;;
1460;SDS011;724;49.910;12.530;2022-09-09T00:58:40;0.00;;;0.00;;
1460;SDS011;724;49.910;12.530;2022-09-09T01:01:10;0.00;;;0.00;;
1460;SDS011;724;49.910;12.530;2022-09-09T01:03:39;0.00;;;0.00;;
1460;SDS011;724;49.910;12.530;2022-09-09T01:06:14;0.00;;;0.00;;
1460;SDS011;724;49.910;12.530;2022-09-09T01:11:40;0.00;;;0.00;;
1460;SDS011;724;49.910;12.530;2022-09-09T01:14:19;0.00;;;0.00;;
1460;SDS011;724;49.910;12.530;2022-09-09T01:16:53;0.00;;;0.00;;
1460;SDS011;724;49.910;12.530;2022-09-09T01:19:27;0.00;;;0.00;;
1460;SDS011;724;49.910;12.530;2022-09-09T01:22:06;0.00;;;0.00;;
1460;SDS011;724;49.910;12.530;2022-09-09T01:24:38;0.00;;;0.00;;
1460;SDS011;724;49.910;12.530;2022-09-09T01:27:12;0.00;;;0.00;;
1460;SDS011;724;49.910;12.530;2022-09-09T01:29:40;0.00;;;0.00;;
1460;SDS011;724;49.910;12.530;2022-09-09T01:35:09;0.00;;;0.00;;
1460;SDS011;724;49.910;12.530;2022-09-09T01:37:41;0.00;;;0.00;;
1460;SDS011;724;49.910;12.530;2022-09-09T01:40:08;0.00;;;0.00;;
1460;SDS011;724;49.910;12.530;2022-09-09T01:42:36;0.00;;;0.00;;
1460;SDS011;724;49.910;12.530;2022-09-09T01:45:03;0.00;;;0.00;;
1460;SDS011;724;49.910;12.530;2022-09-09T01:47:31;0.00;;;0.00;;
1460;SDS011;724;49.910;12.530;2022-09-09T01:49:58;0.00;;;0.00;;
1460;SDS011;724;49.910;12.530;2022-09-09T01:52:26;0.00;;;0.00;;
1460;SDS011;724;49.910;12.530;2022-09-09T01:54:53;0.00;;;0.00;;
1460;SDS011;724;49.910;12.530;2022-09-09T01:57:21;0.00;;;0.00;;
1460;SDS011;724;49.910;12.530;2022-09-09T01:59:58;0.00;;;0.00;;
1460;SDS011;724;49.910;12.530;2022-09-09T02:02:32;0.00;;;0.00;;
1460;SDS011;724;49.910;12.530;2022-09-09T02:05:08;0.00;;;0.00;;
1460;SDS011;724;49.910;12.530;2022-09-09T02:07:44;0.00;;;0.00;;
1460;SDS011;724;49.910;12.530;2022-09-09T02:10:15;0.00;;;0.00;;
1460;SDS011;724;49.910;12.530;2022-09-09T02:12:45;0.00;;;0.00;;
1460;SDS011;724;49.910;12.530;2022-09-09T02:15:17;0.00;;;0.00;;
1460;SDS011;724;49.910;12.530;2022-09-09T02:17:49;0.00;;;0.00;;
1460;SDS011;724;49.910;12.530;2022-09-09T02:20:18;0.00;;;0.00;;
1460;SDS011;724;49.910;12.530;2022-09-09T02:22:47;0.00;;;0.00;;
1460;SDS011;724;49.910;12.530;2022-09-09T02:25:18;0.00;;;0.00;;
1460;SDS011;724;49.910;12.530;2022-09-09T02:27:47;0.00;;;0.00;;
1460;SDS011;724;49.910;12.530;2022-09-09T02:30:18;0.00;;;0.00;;
1460;SDS011;724;49.910;12.530;2022-09-09T02:32:47;0.00;;;0.00;;
1460;SDS011;724;49.910;12.530;2022-09-09T02:35:17;0.00;;;0.00;;
1460;SDS011;724;49.910;12.530;2022-09-09T02:37:47;0.00;;;0.00;;
1460;SDS011;724;49.910;12.530;2022-09-09T02:40:16;0.00;;;0.00;;
1460;SDS011;724;49.910;12.530;2022-09-09T02:42:44;0.00;;;0.00;;
1460;SDS011;724;49.910;12.530;2022-09-09T02:45:11;0.00;;;0.00;;
1460;SDS011;724;49.910;12.530;2022-09-09T02:47:43;0.00;;;0.00;;
1460;SDS011;724;49.910;12.530;2022-09-09T02:50:21;0.00;;;0.00;;
1460;SDS011;724;49.910;12.530;2022-09-09T02:52:55;0.00;;;0.00;;
1460;SDS011;724;49.910;12.530;2022-09-09T02:55:34;0.00;;;0.00;;
1460;SDS011;724;49.910;12.530;2022-09-09T02:58:05;0.00;;;0.00;;
1460;SDS011;724;49.910;12.530;2022-09-09T03:00:36;0.00;;;0.00;;
1460;SDS011;724;49.910;12.530;2022-09-09T03:03:07;0.00;;;0.00;;
1460;SDS011;724;49.910;12.530;2022-09-09T03:05:34;0.00;;;0.00;;
1460;SDS011;724;49.910;12.530;2022-09-09T03:08:01;0.00;;;0.00;;
1460;SDS011;724;49.910;12.530;2022-09-09T03:10:29;0.00;;;0.00;;
1460;SDS011;724;49.910;12.530;2022-09-09T03:12:55;0.00;;;0.00;;
1460;SDS011;724;49.910;12.530;2022-09-09T03:15:22;0.00;;;0.00;;
1460;SDS011;724;49.910;12.530;2022-09-09T03:17:50;0.00;;;0.00;;
1460;SDS011;724;49.910;12.530;2022-09-09T03:20:19;0.00;;;0.00;;
1460;SDS011;724;49.910;12.530;2022-09-09T03:22:45;0.00;;;0.00;;
1460;SDS011;724;49.910;12.530;2022-09-09T03:25:12;0.00;;;0.00;;
1460;SDS011;724;49.910;12.530;2022-09-09T03:27:39;0.00;;;0.00;;
1460;SDS011;724;49.910;12.530;2022-09-09T03:30:06;0.00;;;0.00;;
1460;SDS011;724;49.910;12.530;2022-09-09T03:32:34;0.00;;;0.00;;
1460;SDS011;724;49.910;12.530;2022-09-09T03:35:00;0.00;;;0.00;;
1460;SDS011;724;49.910;12.530;2022-09-09T03:37:29;0.00;;;0.00;;
1460;SDS011;724;49.910;12.530;2022-09-09T03:39:56;0.20;;;0.10;;
1460;SDS011;724;49.910;12.530;2022-09-09T03:42:24;0.20;;;0.10;;
1460;SDS011;724;49.910;12.530;2022-09-09T03:44:52;0.00;;;0.00;;
1460;SDS011;724;49.910;12.530;2022-09-09T03:47:19;0.20;;;0.10;;
1460;SDS011;724;49.910;12.530;2022-09-09T03:49:47;0.20;;;0.10;;
1460;SDS011;724;49.910;12.530;2022-09-09T03:52:14;0.00;;;0.00;;
1460;SDS011;724;49.910;12.530;2022-09-09T03:54:43;0.00;;;0.00;;
1460;SDS011;724;49.910;12.530;2022-09-09T03:57:09;0.00;;;0.00;;
1460;SDS011;724;49.910;12.530;2022-09-09T03:59:37;0.00;;;0.00;;
1460;SDS011;724;49.910;12.530;2022-09-09T04:02:04;0.00;;;0.00;;
1460;SDS011;724;49.910;12.530;2022-09-09T04:04:30;0.00;;;0.00;;
1460;SDS011;724;49.910;12.530;2022-09-09T04:06:57;0.00;;;0.00;;
1460;SDS011;724;49.910;12.530;2022-09-09T04:09:24;0.00;;;0.00;;
1460;SDS011;724;49.910;12.530;2022-09-09T04:11:52;0.00;;;0.00;;
1460;SDS011;724;49.910;12.530;2022-09-09T04:14:20;0.00;;;0.00;;
1460;SDS011;724;49.910;12.530;2022-09-09T04:16:47;0.00;;;0.00;;
1460;SDS011;724;49.910;12.530;2022-09-09T04:19:14;0.00;;;0.00;;
1460;SDS011;724;49.910;12.530;2022-09-09T04:21:41;0.00;;;0.00;;
1460;SDS011;724;49.910;12.530;2022-09-09T04:24:07;0.00;;;0.00;;
1460;SDS011;724;49.910;12.530;2022-09-09T04:26:35;0.00;;;0.00;;
1460;SDS011;724;49.910;12.530;2022-09-09T04:29:04;0.00;;;0.00;;
1460;SDS011;724;49.910;12.530;2022-09-09T04:31:32;0.00;;;0.00;;
1460;SDS011;724;49.910;12.530;2022-09-09T04:34:00;0.00;;;0.00;;
1460;SDS011;724;49.910;12.530;2022-09-09T04:36:30;0.00;;;0.00;;
1460;SDS011;724;49.910;12.530;2022-09-09T04:38:57;0.00;;;0.00;;
1460;SDS011;724;49.910;12.530;2022-09-09T04:41:24;0.00;;;0.00;;
1460;SDS011;724;49.910;12.530;2022-09-09T04:43:51;0.00;;;0.00;;
1460;SDS011;724;49.910;12.530;2022-09-09T04:46:19;0.00;;;0.00;;
1460;SDS011;724;49.910;12.530;2022-09-09T04:48:47;0.00;;;0.00;;
1460;SDS011;724;49.910;12.530;2022-09-09T04:51:15;0.00;;;0.00;;
1460;SDS011;724;49.910;12.530;2022-09-09T04:53:42;0.00;;;0.00;;
1460;SDS011;724;49.910;12.530;2022-09-09T04:56:09;0.00;;;0.00;;
1460;SDS011;724;49.910;12.530;2022-09-09T04:58:37;0.00;;;0.00;;
1460;SDS011;724;49.910;12.530;2022-09-09T05:01:07;0.00;;;0.00;;
1460;SDS011;724;49.910;12.530;2022-09-09T05:03:36;0.00;;;0.00;;
1460;SDS011;724;49.910;12.530;2022-09-09T05:06:04;0.00;;;0.00;;
1460;SDS011;724;49.910;12.530;2022-09-09T05:08:33;0.00;;;0.00;;
1460;SDS011;724;49.910;12.530;2022-09-09T05:11:00;0.00;;;0.00;;
1460;SDS011;724;49.910;12.530;2022-09-09T05:13:27;0.00;;;0.00;;
1460;SDS011;724;49.910;12.530;2022-09-09T05:15:54;0.00;;;0.00;;
1460;SDS011;724;49.910;12.530;2022-09-09T05:18:21;0.00;;;0.00;;
1460;SDS011;724;49.910;12.530;2022-09-09T05:20:49;0.00;;;0.00;;
1460;SDS011;724;49.910;12.530;2022-09-09T05:23:17;0.00;;;0.00;;
1460;SDS011;724;49.910;12.530;2022-09-09T05:25:43;0.00;;;0.00;;
1460;SDS011;724;49.910;12.530;2022-09-09T05:28:20;0.00;;;0.00;;
1460;SDS011;724;49.910;12.530;2022-09-09T05:30:48;0.20;;;0.10;;
1460;SDS011;724;49.910;12.530;2022-09-09T05:33:22;0.20;;;0.10;;
1460;SDS011;724;49.910;12.530;2022-09-09T05:35:55;0.20;;;0.10;;
1460;SDS011;724;49.910;12.530;2022-09-09T05:38:23;0.30;;;0.20;;
1460;SDS011;724;49.910;12.530;2022-09-09T05:40:50;0.30;;;0.20;;
1460;SDS011;724;49.910;12.530;2022-09-09T05:43:17;0.40;;;0.30;;
1460;SDS011;724;49.910;12.530;2022-09-09T05:45:44;0.50;;;0.40;;
1460;SDS011;724;49.910;12.530;2022-09-09T05:48:12;0.60;;;0.50;;
1460;SDS011;724;49.910;12.530;2022-09-09T05:50:40;0.60;;;0.50;;
1460;SDS011;724;49.910;12.530;2022-09-09T05:53:10;0.60;;;0.50;;
1460;SDS011;724;49.910;12.530;2022-09-09T05:55:37;0.50;;;0.40;;
1460;SDS011;724;49.910;12.530;2022-09-09T05:58:04;0.40;;;0.30;;
1460;SDS011;724;49.910;12.530;2022-09-09T06:00:31;0.70;;;0.60;;
1460;SDS011;724;49.910;12.530;2022-09-09T06:02:57;1.50;;;1.40;;
1460;SDS011;724;49.910;12.530;2022-09-09T06:05:24;1.80;;;1.70;;
1460;SDS011;724;49.910;12.530;2022-09-09T06:07:53;1.90;;;1.80;;
1460;SDS011;724;49.910;12.530;2022-09-09T06:10:22;2.20;;;2.00;;
1460;SDS011;724;49.910;12.530;2022-09-09T06:12:48;2.20;;;2.00;;
1460;SDS011;724;49.910;12.530;2022-09-09T06:15:18;2.53;;;2.33;;
1460;SDS011;724;49.910;12.530;2022-09-09T06:17:45;3.50;;;3.30;;
1460;SDS011;724;49.910;12.530;2022-09-09T06:20:12;4.60;;;4.30;;
1460;SDS011;724;49.910;12.530;2022-09-09T06:22:39;4.40;;;4.10;;
1460;SDS011;724;49.910;12.530;2022-09-09T06:25:07;4.70;;;4.40;;
1460;SDS011;724;49.910;12.530;2022-09-09T06:27:36;6.40;;;6.00;;
1460;SDS011;724;49.910;12.530;2022-09-09T06:30:04;7.10;;;6.70;;
1460;SDS011;724;49.910;12.530;2022-09-09T06:32:35;7.23;;;6.83;;
1460;SDS011;724;49.910;12.530;2022-09-09T06:35:03;8.00;;;7.60;;
1460;SDS011;724;49.910;12.530;2022-09-09T06:37:30;7.70;;;7.30;;
1460;SDS011;724;49.910;12.530;2022-09-09T06:39:56;7.47;;;7.07;;
1460;SDS011;724;49.910;12.530;2022-09-09T06:42:23;7.90;;;7.50;;
1460;SDS011;724;49.910;12.530;2022-09-09T06:44:51;7.87;;;7.47;;
1460;SDS011;724;49.910;12.530;2022-09-09T06:47:18;8.60;;;8.10;;
1460;SDS011;724;49.910;12.530;2022-09-09T06:49:45;9.70;;;9.20;;
1460;SDS011;724;49.910;12.530;2022-09-09T06:52:11;9.50;;;9.00;;
1460;SDS011;724;49.910;12.530;2022-09-09T06:54:38;9.70;;;9.20;;
1460;SDS011;724;49.910;12.530;2022-09-09T06:57:05;9.93;;;9.43;;
1460;SDS011;724;49.910;12.530;2022-09-09T06:59:32;9.80;;;9.30;;
1460;SDS011;724;49.910;12.530;2022-09-09T07:02:01;10.70;;;10.10;;
1460;SDS011;724;49.910;12.530;2022-09-09T07:04:28;10.13;;;9.63;;
1460;SDS011;724;49.910;12.530;2022-09-09T07:06:54;10.00;;;9.50;;
1460;SDS011;724;49.910;12.530;2022-09-09T07:09:21;10.10;;;9.60;;
1460;SDS011;724;49.910;12.530;2022-09-09T07:11:49;10.00;;;9.50;;
1460;SDS011;724;49.910;12.530;2022-09-09T07:14:17;9.40;;;8.90;;
1460;SDS011;724;49.910;12.530;2022-09-09T07:16:45;8.50;;;8.00;;
1460;SDS011;724;49.910;12.530;2022-09-09T07:19:14;9.10;;;8.60;;
1460;SDS011;724;49.910;12.530;2022-09-09T07:21:41;9.90;;;9.40;;
1460;SDS011;724;49.910;12.530;2022-09-09T07:24:09;9.80;;;9.30;;
1460;SDS011;724;49.910;12.530;2022-09-09T07:26:36;9.83;;;9.33;;
1460;SDS011;724;49.910;12.530;2022-09-09T07:29:04;9.40;;;8.90;;
1460;SDS011;724;49.910;12.530;2022-09-09T07:31:31;9.50;;;9.00;;
1460;SDS011;724;49.910;12.530;2022-09-09T07:33:59;9.30;;;8.80;;
1460;SDS011;724;49.910;12.530;2022-09-09T07:36:29;9.10;;;8.60;;
1460;SDS011;724;49.910;12.530;2022-09-09T07:38:57;8.80;;;8.30;;
1460;SDS011;724;49.910;12.530;2022-09-09T07:41:26;8.70;;;8.20;;
1460;SDS011;724;49.910;12.530;2022-09-09T07:43:55;8.00;;;7.60;;
1460;SDS011;724;49.910;12.530;2022-09-09T07:46:24;8.10;;;7.70;;
1460;SDS011;724;49.910;12.530;2022-09-09T07:48:53;8.00;;;7.60;;
1460;SDS011;724;49.910;12.530;2022-09-09T07:51:22;6.57;;;6.17;;
1460;SDS011;724;49.910;12.530;2022-09-09T07:53:52;4.70;;;4.40;;
1460;SDS011;724;49.910;12.530;2022-09-09T07:56:22;3.90;;;3.70;;
1460;SDS011;724;49.910;12.530;2022-09-09T07:58:50;3.20;;;3.00;;
1460;SDS011;724;49.910;12.530;2022-09-09T08:01:19;2.40;;;2.20;;
1460;SDS011;724;49.910;12.530;2022-09-09T08:03:52;1.60;;;1.50;;
1460;SDS011;724;49.910;12.530;2022-09-09T08:06:20;1.80;;;1.70;;
1460;SDS011;724;49.910;12.530;2022-09-09T08:08:49;1.87;;;1.77;;
1460;SDS011;724;49.910;12.530;2022-09-09T08:11:18;2.20;;;2.00;;
1460;SDS011;724;49.910;12.530;2022-09-09T08:13:45;2.50;;;2.30;;
1460;SDS011;724;49.910;12.530;2022-09-09T08:16:13;2.90;;;2.70;;
1460;SDS011;724;49.910;12.530;2022-09-09T08:18:41;3.70;;;3.50;;
1460;SDS011;724;49.910;12.530;2022-09-09T08:21:09;4.47;;;4.17;;
1460;SDS011;724;49.910;12.530;2022-09-09T08:23:38;5.70;;;5.40;;
1460;SDS011;724;49.910;12.530;2022-09-09T08:26:06;6.00;;;5.70;;
1460;SDS011;724;49.910;12.530;2022-09-09T08:28:37;7.30;;;6.90;;
1460;SDS011;724;49.910;12.530;2022-09-09T08:31:06;7.60;;;7.20;;
1460;SDS011;724;49.910;12.530;2022-09-09T08:33:34;7.70;;;7.30;;
1460;SDS011;724;49.910;12.530;2022-09-09T08:36:03;7.90;;;7.50;;
1460;SDS011;724;49.910;12.530;2022-09-09T08:38:30;8.50;;;8.00;;
1460;SDS011;724;49.910;12.530;2022-09-09T08:40:59;7.97;;;7.57;;
1460;SDS011;724;49.910;12.530;2022-09-09T08:43:33;7.70;;;7.30;;
1460;SDS011;724;49.910;12.530;2022-09-09T08:46:02;7.30;;;6.90;;
1460;SDS011;724;49.910;12.530;2022-09-09T08:48:39;7.80;;;7.40;;
1460;SDS011;724;49.910;12.530;2022-09-09T08:51:14;7.90;;;7.50;;
1460;SDS011;724;49.910;12.530;2022-09-09T08:53:41;8.20;;;7.80;;
1460;SDS011;724;49.910;12.530;2022-09-09T08:56:11;7.60;;;7.20;;
1460;SDS011;724;49.910;12.530;2022-09-09T08:58:42;7.30;;;6.90;;
1460;SDS011;724;49.910;12.530;2022-09-09T09:04:10;7.10;;;6.70;;
1460;SDS011;724;49.910;12.530;2022-09-09T09:06:54;5.60;;;5.30;;
1460;SDS011;724;49.910;12.530;2022-09-09T09:09:31;5.70;;;5.40;;
1460;SDS011;724;49.910;12.530;2022-09-09T09:12:10;5.20;;;4.90;;
1460;SDS011;724;49.910;12.530;2022-09-09T09:14:41;5.43;;;5.13;;
1460;SDS011;724;49.910;12.530;2022-09-09T09:17:12;5.07;;;4.77;;
1460;SDS011;724;49.910;12.530;2022-09-09T09:19:41;4.30;;;4.00;;
1460;SDS011;724;49.910;12.530;2022-09-09T09:22:10;3.90;;;3.70;;
1460;SDS011;724;49.910;12.530;2022-09-09T09:24:45;2.60;;;2.40;;
1460;SDS011;724;49.910;12.530;2022-09-09T09:27:21;2.40;;;2.20;;
1460;SDS011;724;49.910;12.530;2022-09-09T09:29:56;1.90;;;1.80;;
1460;SDS011;724;49.910;12.530;2022-09-09T09:32:28;2.20;;;2.00;;
1460;SDS011;724;49.910;12.530;2022-09-09T09:35:00;2.00;;;1.90;;
1460;SDS011;724;49.910;12.530;2022-09-09T09:37:31;2.40;;;2.20;;
1460;SDS011;724;49.910;12.530;2022-09-09T09:42:51;2.83;;;2.63;;
1460;SDS011;724;49.910;12.530;2022-09-09T09:45:26;3.70;;;3.50;;
1460;SDS011;724;49.910;12.530;2022-09-09T09:48:02;4.53;;;4.23;;
1460;SDS011;724;49.910;12.530;2022-09-09T09:50:30;3.90;;;3.70;;
1460;SDS011;724;49.910;12.530;2022-09-09T09:52:59;4.50;;;4.20;;
1460;SDS011;724;49.910;12.530;2022-09-09T09:55:29;5.70;;;5.40;;
1460;SDS011;724;49.910;12.530;2022-09-09T09:58:00;7.40;;;7.00;;
1460;SDS011;724;49.910;12.530;2022-09-09T10:00:29;8.20;;;7.80;;
1460;SDS011;724;49.910;12.530;2022-09-09T10:02:55;9.20;;;8.70;;
1460;SDS011;724;49.910;12.530;2022-09-09T10:05:24;9.90;;;9.40;;
1460;SDS011;724;49.910;12.530;2022-09-09T10:08:02;11.20;;;10.60;;
1460;SDS011;724;49.910;12.530;2022-09-09T10:10:34;11.80;;;11.20;;
1460;SDS011;724;49.910;12.530;2022-09-09T10:13:16;11.90;;;11.30;;
1460;SDS011;724;49.910;12.530;2022-09-09T10:15:51;11.70;;;11.10;;
1460;SDS011;724;49.910;12.530;2022-09-09T10:21:18;11.50;;;10.90;;
1460;SDS011;724;49.910;12.530;2022-09-09T10:23:56;11.63;;;11.03;;
1460;SDS011;724;49.910;12.530;2022-09-09T10:26:39;10.87;;;10.27;;
1460;SDS011;724;49.910;12.530;2022-09-09T10:29:18;11.00;;;10.40;;
1460;SDS011;724;49.910;12.530;2022-09-09T10:32:07;10.60;;;10.00;;
1460;SDS011;724;49.910;12.530;2022-09-09T10:34:51;10.70;;;10.10;;
1460;SDS011;724;49.910;12.530;2022-09-09T10:37:30;9.50;;;9.00;;
1460;SDS011;724;49.910;12.530;2022-09-09T10:40:13;9.43;;;8.93;;
1460;SDS011;724;49.910;12.530;2022-09-09T10:42:51;9.30;;;8.80;;
1460;SDS011;724;49.910;12.530;2022-09-09T10:45:20;9.60;;;9.10;;
1460;SDS011;724;49.910;12.530;2022-09-09T10:50:41;9.80;;;9.30;;
1460;SDS011;724;49.910;12.530;2022-09-09T10:53:18;11.30;;;10.70;;
1460;SDS011;724;49.910;12.530;2022-09-09T10:55:56;11.60;;;11.00;;
1460;SDS011;724;49.910;12.530;2022-09-09T10:58:28;10.90;;;10.30;;
1460;SDS011;724;49.910;12.530;2022-09-09T11:00:59;9.70;;;9.20;;
1460;SDS011;724;49.910;12.530;2022-09-09T11:03:32;9.60;;;9.10;;
1460;SDS011;724;49.910;12.530;2022-09-09T11:06:05;9.70;;;9.20;;
1460;SDS011;724;49.910;12.530;2022-09-09T11:08:38;9.83;;;9.33;;
1460;SDS011;724;49.910;12.530;2022-09-09T11:11:06;9.87;;;9.37;;
1460;SDS011;724;49.910;12.530;2022-09-09T11:13:42;10.40;;;9.90;;
1460;SDS011;724;49.910;12.530;2022-09-09T11:16:16;10.00;;;9.50;;
1460;SDS011;724;49.910;12.530;2022-09-09T11:18:48;11.67;;;11.07;;
1460;SDS011;724;49.910;12.530;2022-09-09T11:21:16;10.23;;;9.73;;
1460;SDS011;724;49.910;12.530;2022-09-09T11:23:50;9.80;;;9.30;;
1460;SDS011;724;49.910;12.530;2022-09-09T11:26:23;11.30;;;10.70;;
1460;SDS011;724;49.910;12.530;2022-09-09T11:29:00;10.70;;;10.10;;
1460;SDS011;724;49.910;12.530;2022-09-09T11:31:50;10.30;;;9.80;;
1460;SDS011;724;49.910;12.530;2022-09-09T11:34:33;10.90;;;10.30;;
1460;SDS011;724;49.910;12.530;2022-09-09T11:37:16;9.70;;;9.20;;
1460;SDS011;724;49.910;12.530;2022-09-09T11:42:45;9.80;;;9.30;;
1460;SDS011;724;49.910;12.530;2022-09-09T11:45:21;9.23;;;8.73;;
1460;SDS011;724;49.910;12.530;2022-09-09T11:47:51;9.20;;;8.70;;
1460;SDS011;724;49.910;12.530;2022-09-09T11:53:23;8.60;;;8.10;;
1460;SDS011;724;49.910;12.530;2022-09-09T11:58:39;9.27;;;8.77;;
1460;SDS011;724;49.910;12.530;2022-09-09T12:01:14;9.23;;;8.73;;
1460;SDS011;724;49.910;12.530;2022-09-09T12:03:54;8.80;;;8.30;;
1460;SDS011;724;49.910;12.530;2022-09-09T12:06:32;8.70;;;8.20;;
1460;SDS011;724;49.910;12.530;2022-09-09T12:09:08;8.90;;;8.40;;
1460;SDS011;724;49.910;12.530;2022-09-09T12:11:42;8.70;;;8.20;;
1460;SDS011;724;49.910;12.530;2022-09-09T12:14:18;7.83;;;7.43;;
1460;SDS011;724;49.910;12.530;2022-09-09T12:16:47;8.70;;;8.20;;
1460;SDS011;724;49.910;12.530;2022-09-09T12:19:16;9.10;;;8.60;;
1460;SDS011;724;49.910;12.530;2022-09-09T12:21:48;8.93;;;8.43;;
1460;SDS011;724;49.910;12.530;2022-09-09T12:24:20;8.00;;;7.60;;
1460;SDS011;724;49.910;12.530;2022-09-09T12:26:55;7.80;;;7.40;;
1460;SDS011;724;49.910;12.530;2022-09-09T12:29:29;7.60;;;7.20;;
1460;SDS011;724;49.910;12.530;2022-09-09T12:32:06;8.50;;;8.00;;
1460;SDS011;724;49.910;12.530;2022-09-09T12:34:38;8.80;;;8.30;;
1460;SDS011;724;49.910;12.530;2022-09-09T12:37:13;8.17;;;7.77;;
1460;SDS011;724;49.910;12.530;2022-09-09T12:39:55;7.57;;;7.17;;
1460;SDS011;724;49.910;12.530;2022-09-09T12:42:25;8.00;;;7.60;;
1460;SDS011;724;49.910;12.530;2022-09-09T12:44:53;8.00;;;7.60;;
1460;SDS011;724;49.910;12.530;2022-09-09T12:47:22;8.10;;;7.70;;
1460;SDS011;724;49.910;12.530;2022-09-09T12:49:59;8.33;;;7.90;;
1460;SDS011;724;49.910;12.530;2022-09-09T12:52:27;8.10;;;7.70;;
1460;SDS011;724;49.910;12.530;2022-09-09T12:54:58;8.43;;;7.97;;
1460;SDS011;724;49.910;12.530;2022-09-09T12:57:30;7.90;;;7.50;;
1460;SDS011;724;49.910;12.530;2022-09-09T13:00:11;7.80;;;7.40;;
1460;SDS011;724;49.910;12.530;2022-09-09T13:02:48;8.30;;;7.90;;
1460;SDS011;724;49.910;12.530;2022-09-09T13:05:17;7.90;;;7.50;;
1460;SDS011;724;49.910;12.530;2022-09-09T13:07:46;7.50;;;7.10;;
1460;SDS011;724;49.910;12.530;2022-09-09T13:10:13;8.50;;;8.00;;
1460;SDS011;724;49.910;12.530;2022-09-09T13:12:47;8.30;;;7.90;;
1460;SDS011;724;49.910;12.530;2022-09-09T13:15:19;8.90;;;8.40;;
1460;SDS011;724;49.910;12.530;2022-09-09T13:17:54;8.10;;;7.70;;
1460;SDS011;724;49.910;12.530;2022-09-09T13:20:23;9.00;;;8.50;;
1460;SDS011;724;49.910;12.530;2022-09-09T13:22:51;9.30;;;8.80;;
1460;SDS011;724;49.910;12.530;2022-09-09T13:25:21;9.00;;;8.50;;
1460;SDS011;724;49.910;12.530;2022-09-09T13:27:53;9.10;;;8.60;;
1460;SDS011;724;49.910;12.530;2022-09-09T13:30:23;8.70;;;8.20;;
1460;SDS011;724;49.910;12.530;2022-09-09T13:33:02;9.10;;;8.60;;
1460;SDS011;724;49.910;12.530;2022-09-09T13:35:30;8.80;;;8.30;;
1460;SDS011;724;49.910;12.530;2022-09-09T13:37:58;8.90;;;8.40;;
1460;SDS011;724;49.910;12.530;2022-09-09T13:40:32;9.00;;;8.50;;
1460;SDS011;724;49.910;12.530;2022-09-09T13:43:01;8.77;;;8.27;;
1460;SDS011;724;49.910;12.530;2022-09-09T13:45:28;8.80;;;8.30;;
1460;SDS011;724;49.910;12.530;2022-09-09T13:47:55;8.80;;;8.30;;
1460;SDS011;724;49.910;12.530;2022-09-09T13:50:23;8.60;;;8.10;;
1460;SDS011;724;49.910;12.530;2022-09-09T13:52:51;8.60;;;8.10;;
1460;SDS011;724;49.910;12.530;2022-09-09T13:55:19;8.60;;;8.10;;
1460;SDS011;724;49.910;12.530;2022-09-09T13:57:50;8.50;;;8.00;;
1460;SDS011;724;49.910;12.530;2022-09-09T14:00:20;7.90;;;7.50;;
1460;SDS011;724;49.910;12.530;2022-09-09T14:02:47;7.80;;;7.40;;
1460;SDS011;724;49.910;12.530;2022-09-09T14:05:14;8.23;;;7.83;;
1460;SDS011;724;49.910;12.530;2022-09-09T14:07:41;8.07;;;7.67;;
1460;SDS011;724;49.910;12.530;2022-09-09T14:10:09;7.70;;;7.30;;
1460;SDS011;724;49.910;12.530;2022-09-09T14:12:36;8.10;;;7.70;;
1460;SDS011;724;49.910;12.530;2022-09-09T14:15:03;7.87;;;7.47;;
1460;SDS011;724;49.910;12.530;2022-09-09T14:17:32;7.70;;;7.30;;
1460;SDS011;724;49.910;12.530;2022-09-09T14:20:01;7.30;;;6.90;;
1460;SDS011;724;49.910;12.530;2022-09-09T14:22:28;7.60;;;7.20;;
1460;SDS011;724;49.910;12.530;2022-09-09T14:24:55;7.70;;;7.30;;
1460;SDS011;724;49.910;12.530;2022-09-09T14:27:22;7.60;;;7.20;;
1460;SDS011;724;49.910;12.530;2022-09-09T14:29:50;7.60;;;7.20;;
1460;SDS011;724;49.910;12.530;2022-09-09T14:32:17;7.60;;;7.20;;
1460;SDS011;724;49.910;12.530;2022-09-09T14:34:46;7.10;;;6.70;;
1460;SDS011;724;49.910;12.530;2022-09-09T14:37:14;7.27;;;6.87;;
1460;SDS011;724;49.910;12.530;2022-09-09T14:39:41;7.20;;;6.80;;
1460;SDS011;724;49.910;12.530;2022-09-09T14:42:09;6.80;;;6.40;;
1460;SDS011;724;49.910;12.530;2022-09-09T14:44:36;7.00;;;6.60;;
1460;SDS011;724;49.910;12.530;2022-09-09T14:47:03;6.70;;;6.30;;
1460;SDS011;724;49.910;12.530;2022-09-09T14:49:30;6.10;;;5.80;;
1460;SDS011;724;49.910;12.530;2022-09-09T14:51:58;5.83;;;5.53;;
1460;SDS011;724;49.910;12.530;2022-09-09T14:54:25;5.70;;;5.40;;
1460;SDS011;724;49.910;12.530;2022-09-09T14:56:53;5.60;;;5.30;;
1460;SDS011;724;49.910;12.530;2022-09-09T14:59:19;5.00;;;4.70;;
1460;SDS011;724;49.910;12.530;2022-09-09T15:01:47;4.90;;;4.60;;
1460;SDS011;724;49.910;12.530;2022-09-09T15:04:14;4.60;;;4.30;;
1460;SDS011;724;49.910;12.530;2022-09-09T15:06:41;4.10;;;3.90;;
1460;SDS011;724;49.910;12.530;2022-09-09T15:09:13;4.40;;;4.10;;
1460;SDS011;724;49.910;12.530;2022-09-09T15:11:40;3.80;;;3.60;;
1460;SDS011;724;49.910;12.530;2022-09-09T15:14:07;4.70;;;4.40;;
1460;SDS011;724;49.910;12.530;2022-09-09T15:16:35;4.90;;;4.60;;
1460;SDS011;724;49.910;12.530;2022-09-09T15:19:02;4.17;;;3.93;;
1460;SDS011;724;49.910;12.530;2022-09-09T15:21:30;2.37;;;2.17;;
1460;SDS011;724;49.910;12.530;2022-09-09T15:23:58;1.70;;;1.60;;
1460;SDS011;724;49.910;12.530;2022-09-09T15:26:27;1.70;;;1.60;;
1460;SDS011;724;49.910;12.530;2022-09-09T15:28:55;1.77;;;1.67;;
1460;SDS011;724;49.910;12.530;2022-09-09T15:31:25;1.80;;;1.70;;
1460;SDS011;724;49.910;12.530;2022-09-09T15:33:54;2.40;;;2.20;;
1460;SDS011;724;49.910;12.530;2022-09-09T15:36:26;1.90;;;1.80;;
1460;SDS011;724;49.910;12.530;2022-09-09T15:38:54;2.00;;;1.90;;
1460;SDS011;724;49.910;12.530;2022-09-09T15:41:21;1.93;;;1.83;;
1460;SDS011;724;49.910;12.530;2022-09-09T15:43:51;2.20;;;2.00;;
1460;SDS011;724;49.910;12.530;2022-09-09T15:46:23;2.20;;;2.00;;
1460;SDS011;724;49.910;12.530;2022-09-09T15:48:54;2.00;;;1.90;;
1460;SDS011;724;49.910;12.530;2022-09-09T15:51:22;2.20;;;2.00;;
1460;SDS011;724;49.910;12.530;2022-09-09T15:53:54;2.27;;;2.07;;
1460;SDS011;724;49.910;12.530;2022-09-09T15:56:21;2.07;;;1.93;;
1460;SDS011;724;49.910;12.530;2022-09-09T15:58:50;2.50;;;2.30;;
1460;SDS011;724;49.910;12.530;2022-09-09T16:01:23;2.30;;;2.10;;